Time;durP1;ratioP1;P1;durP2;ratioP2;P2;SDS_P1;SDS_P2;PMS_P1;PMS_P2;Temp;Humidity;BMP_temperature;BMP_pressure;BME280_temperature;BME280_humidity;BME280_pressure;Samples;Min_cycle;Max_cycle;Signal;HPM_P1;HPM_P2
2021/11/11 00:04:40;;;;;;;46.30;23.62;;;;;;;0.76;100.00;100099.11;4236754;83;28478;-83
2021/11/11 00:10:42;;;;;;;46.45;23.00;;;;;;;0.72;100.00;100107.47;4333112;82;28473;-82
2021/11/11 00:16:43;;;;;;;49.50;23.07;;;;;;;0.74;100.00;100093.12;4356225;82;28482;-82
2021/11/11 00:22:47;;;;;;;55.58;27.65;;;;;;;0.56;100.00;100098.30;4275760;82;28478;-83
2021/11/11 00:28:49;;;;;;;47.03;25.30;;;;;;;0.57;100.00;100096.47;4262706;83;28538;-83
2021/11/11 00:34:54;;;;;;;43.28;22.98;;;;;;;0.54;100.00;100100.25;4274456;83;28465;-84
2021/11/11 00:40:55;;;;;;;54.50;26.42;;;;;;;0.39;100.00;100087.92;4243267;84;28492;-83
2021/11/11 00:46:59;;;;;;;62.00;29.00;;;;;;;0.53;100.00;100100.73;4248112;83;28505;-81
2021/11/11 00:53:02;;;;;;;63.75;30.00;;;;;;;0.58;100.00;100091.55;4380172;81;28463;-80
2021/11/11 00:59:06;;;;;;;63.08;28.05;;;;;;;0.53;100.00;100098.58;4369144;80;28446;-80
2021/11/11 01:05:08;;;;;;;57.23;26.68;;;;;;;0.49;100.00;100095.38;4328206;81;28495;-77
2021/11/11 01:11:12;;;;;;;57.20;27.58;;;;;;;0.43;100.00;100083.20;4325579;81;28462;-86
2021/11/11 01:17:13;;;;;;;57.78;28.07;;;;;;;0.40;100.00;100086.95;4331544;81;28471;-81
2021/11/11 01:23:14;;;;;;;61.65;29.85;;;;;;;0.33;100.00;100084.50;4305206;81;28538;-90
2021/11/11 01:29:16;;;;;;;86.80;41.45;;;;;;;0.27;100.00;100089.38;4297080;82;28514;-89
2021/11/11 01:35:18;;;;;;;63.28;30.75;;;;;;;0.51;100.00;100085.48;4299886;82;28484;-84
2021/11/11 01:41:20;;;;;;;75.28;34.60;;;;;;;0.34;100.00;100078.23;4343388;81;28488;-87
2021/11/11 01:47:22;;;;;;;63.87;30.23;;;;;;;0.46;100.00;100076.30;4290650;81;28515;-82
2021/11/11 01:53:26;;;;;;;68.12;32.35;;;;;;;0.15;100.00;100072.45;4307323;81;28487;-85
2021/11/11 01:59:29;;;;;;;65.32;31.42;;;;;;;0.22;100.00;100069.61;4342877;81;28533;-85
2021/11/11 02:05:33;;;;;;;67.70;34.33;;;;;;;0.20;100.00;100059.62;4340000;81;28588;-85
2021/11/11 02:11:35;;;;;;;61.98;31.42;;;;;;;0.12;100.00;100047.11;4367365;81;28500;-85
2021/11/11 02:17:37;;;;;;;66.17;31.97;;;;;;;-0.02;100.00;100053.16;4318578;81;28497;-86
2021/11/11 02:23:41;;;;;;;66.60;34.78;;;;;;;0.02;100.00;100054.19;4225511;84;28539;-83
2021/11/11 02:29:44;;;;;;;68.35;33.83;;;;;;;0.01;100.00;100059.98;4299947;83;28473;-84
2021/11/11 02:35:46;;;;;;;74.67;35.40;;;;;;;0.07;100.00;100059.42;4300660;81;44455;-84
2021/11/11 02:41:48;;;;;;;71.65;35.08;;;;;;;-0.05;100.00;100070.63;4359746;81;28470;-84
2021/11/11 02:47:52;;;;;;;65.40;32.45;;;;;;;0.04;100.00;100069.42;4342578;81;28431;-85
2021/11/11 02:53:55;;;;;;;61.23;31.23;;;;;;;-0.16;100.00;100060.14;4301513;83;28479;-85
2021/11/11 03:00:01;;;;;;;65.12;32.40;;;;;;;-0.07;100.00;100047.93;4363795;81;44085;-84
2021/11/11 03:06:03;;;;;;;66.82;33.18;;;;;;;-0.07;100.00;100036.85;4306881;81;44090;-84
2021/11/11 03:12:07;;;;;;;60.58;29.15;;;;;;;-0.06;100.00;100045.63;4333611;81;28508;-83
2021/11/11 03:18:12;;;;;;;61.65;29.40;;;;;;;0.12;100.00;100029.44;4203105;84;28553;-84
2021/11/11 03:24:15;;;;;;;53.85;26.68;;;;;;;-0.05;100.00;100026.15;4316860;81;43693;-79
2021/11/11 03:30:20;;;;;;;59.42;27.37;;;;;;;-0.12;100.00;100017.94;4324455;81;28479;-81
2021/11/11 03:36:23;;;;;;;53.02;23.98;;;;;;;-0.11;100.00;100006.86;4260038;83;44092;-80
2021/11/11 03:42:25;;;;;;;50.70;26.55;;;;;;;-0.02;100.00;100003.39;4218352;84;28484;-81
2021/11/11 03:48:27;;;;;;;54.10;26.55;;;;;;;-0.09;100.00;99991.72;4221925;84;43654;-84
2021/11/11 03:54:30;;;;;;;54.05;25.72;;;;;;;-0.15;100.00;100000.53;4220171;84;28485;-87
2021/11/11 04:00:32;;;;;;;55.20;25.77;;;;;;;-0.10;100.00;99996.66;4215242;84;28456;-87
2021/11/11 04:06:34;;;;;;;54.63;25.65;;;;;;;-0.17;100.00;99989.27;4215088;84;28516;-85
2021/11/11 04:12:36;;;;;;;55.35;25.92;;;;;;;-0.21;100.00;99980.42;4214332;84;43220;-84
2021/11/11 04:18:38;;;;;;;51.80;25.85;;;;;;;-0.18;100.00;99996.85;4216623;84;28515;-84
2021/11/11 04:24:40;;;;;;;50.30;25.52;;;;;;;-0.22;100.00;99997.27;4224775;83;43587;-84
2021/11/11 04:30:45;;;;;;;46.60;24.18;;;;;;;-0.15;100.00;100002.36;4227043;84;44422;-85
2021/11/11 04:37:08;;;;;;;54.93;24.43;;;;;;;-0.14;100.00;99993.45;4227204;84;28456;-84
2021/11/11 04:43:33;;;;;;;54.60;24.70;;;;;;;-0.17;100.00;99985.78;4222825;84;44068;-82
2021/11/11 05:07:54;;;;;;;49.95;23.77;;;;;;;-0.41;100.00;99981.72;4245829;83;44439;-85
2021/11/11 05:13:57;;;;;;;49.42;23.57;;;;;;;-0.38;100.00;99964.26;4226285;84;28438;-85
2021/11/11 05:19:59;;;;;;;52.10;25.35;;;;;;;-0.50;100.00;99973.28;4226283;84;28566;-84
2021/11/11 05:26:03;;;;;;;51.75;25.43;;;;;;;-0.32;100.00;99985.34;4264309;83;28519;-82
2021/11/11 05:32:04;;;;;;;54.25;25.55;;;;;;;-0.23;100.00;99982.38;4226644;83;43205;-87
2021/11/11 05:38:06;;;;;;;45.95;23.20;;;;;;;-0.36;100.00;99972.06;4343390;81;28467;-85
2021/11/11 05:44:09;;;;;;;48.52;25.05;;;;;;;-0.50;100.00;99978.09;4319345;81;28508;-87
2021/11/11 05:50:16;;;;;;;60.23;29.60;;;;;;;-0.46;100.00;99982.62;4310496;81;28481;-83
2021/11/11 05:56:18;;;;;;;54.53;25.32;;;;;;;-0.37;100.00;99985.75;4341954;81;28499;-83
2021/11/11 06:02:21;;;;;;;49.03;24.32;;;;;;;-0.33;100.00;99981.03;4372884;81;28456;-82
2021/11/11 06:08:23;;;;;;;64.47;32.30;;;;;;;-0.48;100.00;100001.25;4354948;81;44088;-82
2021/11/11 06:14:24;;;;;;;62.27;30.35;;;;;;;-0.36;100.00;99995.84;4335609;81;28577;-83
2021/11/11 06:20:31;;;;;;;57.30;27.45;;;;;;;-0.29;100.00;99991.19;4341998;81;28494;-85
2021/11/11 06:26:30;;;;;;;59.18;27.42;;;;;;;-0.29;100.00;99973.19;4363567;81;28506;-83
2021/11/11 06:32:35;;;;;;;56.83;28.52;;;;;;;-0.25;100.00;99977.22;4317008;81;28453;-81
2021/11/11 06:38:37;;;;;;;55.30;26.85;;;;;;;-0.17;100.00;99983.13;4347875;81;28444;-82
2021/11/11 06:44:42;;;;;;;61.13;28.92;;;;;;;-0.15;100.00;99980.70;4311963;81;28505;-83
2021/11/11 06:50:43;;;;;;;51.98;26.30;;;;;;;0.05;100.00;99970.14;4306934;81;28462;-82
2021/11/11 06:56:45;;;;;;;53.00;26.42;;;;;;;0.09;100.00;99958.30;4362814;81;28531;-83
2021/11/11 07:02:46;;;;;;;53.92;26.82;;;;;;;0.19;100.00;99958.78;4368188;81;43820;-83
2021/11/11 07:08:50;;;;;;;52.98;26.00;;;;;;;0.29;100.00;99972.02;4389019;81;43232;-80
2021/11/11 07:14:51;;;;;;;57.05;28.52;;;;;;;0.23;100.00;99981.34;4369137;81;28462;-89
2021/11/11 07:20:57;;;;;;;56.33;27.62;;;;;;;0.17;100.00;99970.84;4329147;81;28502;-83
2021/11/11 07:27:00;;;;;;;54.38;26.35;;;;;;;0.70;100.00;99959.39;4223345;83;28537;-86
2021/11/11 07:33:02;;;;;;;57.60;27.62;;;;;;;0.79;100.00;99959.00;4228975;82;28555;-87
2021/11/11 07:39:05;;;;;;;55.73;28.00;;;;;;;0.98;100.00;99954.11;4214293;81;28519;-81
2021/11/11 07:45:08;;;;;;;51.18;26.12;;;;;;;1.03;100.00;99956.33;4325233;81;28467;-88
2021/11/11 07:51:10;;;;;;;55.05;26.75;;;;;;;1.21;100.00;99952.43;4253969;82;28448;-85
2021/11/11 07:57:12;;;;;;;50.03;26.75;;;;;;;1.47;100.00;99941.11;4248888;82;28454;-84
2021/11/11 08:03:13;;;;;;;55.65;27.35;;;;;;;1.75;100.00;99938.41;4310009;81;28549;-85
2021/11/11 08:09:15;;;;;;;50.92;27.00;;;;;;;1.87;100.00;99923.09;4306161;81;28485;-87
2021/11/11 08:15:17;;;;;;;57.90;28.10;;;;;;;2.16;100.00;99923.33;4340696;81;28470;-87
2021/11/11 08:21:18;;;;;;;59.90;29.72;;;;;;;2.27;100.00;99925.73;4352151;81;28452;-89
2021/11/11 08:27:22;;;;;;;61.45;31.12;;;;;;;2.49;100.00;99929.70;4330744;81;28502;-79
2021/11/11 08:33:25;;;;;;;60.55;31.27;;;;;;;2.76;100.00;99933.67;4294425;81;28474;-86
2021/11/11 08:39:27;;;;;;;57.93;29.92;;;;;;;3.07;100.00;99921.19;4346256;81;28538;-85
2021/11/11 08:45:31;;;;;;;70.92;33.48;;;;;;;3.24;100.00;99935.36;4335928;81;28492;-82
2021/11/11 08:51:35;;;;;;;69.50;36.35;;;;;;;3.55;100.00;99924.14;4365546;81;28440;-84
2021/11/11 08:57:37;;;;;;;69.50;36.00;;;;;;;3.82;100.00;99918.21;4326691;81;28458;-86
2021/11/11 09:03:40;;;;;;;75.60;37.30;;;;;;;4.05;100.00;99909.56;4325523;81;28515;-85
2021/11/11 09:09:45;;;;;;;66.15;35.10;;;;;;;4.16;100.00;99925.67;4239276;82;28512;-86
2021/11/11 09:15:47;;;;;;;62.97;31.00;;;;;;;4.24;100.00;99914.22;4239931;83;37936;-82
2021/11/11 09:21:48;;;;;;;69.03;33.15;;;;;;;4.47;100.00;99905.00;4249150;83;28471;-83
2021/11/11 09:27:50;;;;;;;56.20;30.37;;;;;;;4.64;100.00;99893.84;4237363;82;28466;-89
2021/11/11 09:33:52;;;;;;;63.42;31.73;;;;;;;4.90;100.00;99888.73;4272481;82;28496;-84
2021/11/11 09:39:53;;;;;;;61.05;31.23;;;;;;;4.94;100.00;99881.23;4344166;81;28448;-85
2021/11/11 09:45:54;;;;;;;58.30;30.08;;;;;;;5.10;100.00;99866.50;4330126;81;28556;-82
2021/11/11 09:51:56;;;;;;;57.70;29.18;;;;;;;5.24;100.00;99848.91;4333119;81;28560;-84
2021/11/11 10:04:22;;;;;;;49.65;27.48;;;;;;;5.80;100.00;99833.17;4329470;81;28457;-86
2021/11/11 10:10:44;;;;;;;48.73;25.72;;;;;;;6.07;100.00;99834.94;4339330;81;28464;-87
2021/11/11 10:16:49;;;;;;;44.15;23.22;;;;;;;6.10;100.00;99834.60;4320968;81;28439;-87
2021/11/11 10:22:50;;;;;;;47.97;23.97;;;;;;;6.27;100.00;99836.59;4303006;80;28583;-86
2021/11/11 10:28:54;;;;;;;43.75;20.27;;;;;;;6.35;100.00;99838.34;4316223;81;28466;-83
2021/11/11 10:35:01;;;;;;;40.65;20.95;;;;;;;6.37;100.00;99826.15;4326658;81;28512;-88
2021/11/11 10:41:02;;;;;;;38.75;19.05;;;;;;;6.62;100.00;99822.69;4302438;81;28475;-85
2021/11/11 10:47:08;;;;;;;34.35;17.95;;;;;;;6.79;100.00;99806.42;4312990;81;28520;-84
2021/11/11 10:53:14;;;;;;;39.38;20.55;;;;;;;6.96;100.00;99802.53;4275714;83;28491;-85
2021/11/11 10:59:20;;;;;;;31.70;17.25;;;;;;;7.13;100.00;99806.28;4275641;83;44112;-84
2021/11/11 11:05:26;;;;;;;28.57;15.98;;;;;;;7.23;100.00;99793.95;4276428;83;28514;-85
2021/11/11 11:11:38;;;;;;;34.20;17.20;;;;;;;7.27;100.00;99801.09;4340096;81;28518;-83
2021/11/11 11:17:54;;;;;;;28.15;15.38;;;;;;;7.38;100.00;99802.73;4332722;81;28511;-87
2021/11/11 11:24:01;;;;;;;;;;;;;;;7.39;100.00;99791.04;4255848;82;28478;-89
2021/11/11 11:30:15;;;;;;;38.42;18.77;;;;;;;7.61;100.00;99789.68;4354568;81;20201;-82
2021/11/11 11:36:18;;;;;;;31.50;16.40;;;;;;;7.90;100.00;99791.03;4240828;83;28449;-82
2021/11/11 11:42:26;;;;;;;35.28;17.65;;;;;;;7.93;100.00;99788.80;4348845;81;28492;-81
2021/11/11 11:48:29;;;;;;;34.88;17.27;;;;;;;8.03;100.00;99785.75;4333938;81;28449;-84
2021/11/11 11:55:00;;;;;;;33.63;16.32;;;;;;;7.99;100.00;99801.91;4326189;81;28482;-84
2021/11/11 12:44:17;;;;;;;22.05;11.80;;;;;;;8.68;100.00;99779.83;4316928;81;28456;-87
2021/11/11 12:51:00;;;;;;;20.45;11.28;;;;;;;8.93;100.00;99769.39;4239910;82;28491;-85
2021/11/11 12:57:04;;;;;;;22.20;12.35;;;;;;;8.96;100.00;99774.38;4305767;81;28578;-86
2021/11/11 13:03:07;;;;;;;24.37;12.80;;;;;;;9.01;100.00;99771.09;4323261;81;28444;-87
2021/11/11 13:09:21;;;;;;;30.43;16.65;;;;;;;9.04;100.00;99779.53;4308042;81;28476;-86
2021/11/11 13:15:22;;;;;;;32.78;17.62;;;;;;;9.09;100.00;99781.61;4332195;81;28443;-86
2021/11/11 13:54:31;;;;;;;39.15;25.85;;;;;;;9.28;100.00;99780.51;4239105;81;275125;-83
2021/11/11 14:00:19;;;;;;;37.08;20.27;;;;;;;9.44;100.00;99768.55;4346763;81;28461;-82
2021/11/11 15:17:20;;;;;;;30.27;15.15;;;;;;;7.32;100.00;99754.03;4310971;81;28449;-87
2021/11/11 16:20:00;;;;;;;37.98;18.80;;;;;;;6.13;100.00;99783.50;4212556;84;28483;-88
2021/11/11 16:32:10;;;;;;;35.30;17.23;;;;;;;5.88;100.00;99792.72;4230260;82;28459;-85
2021/11/11 16:38:12;;;;;;;35.10;18.15;;;;;;;5.75;100.00;99806.70;4268377;82;28539;-87
2021/11/11 16:44:14;;;;;;;34.83;18.05;;;;;;;5.64;100.00;99806.12;4263290;82;28481;-88
2021/11/11 16:50:19;;;;;;;36.60;18.35;;;;;;;5.54;100.00;99812.22;4257406;82;28502;-85
2021/11/11 16:56:20;;;;;;;33.08;17.77;;;;;;;5.43;100.00;99814.78;4240537;83;28467;-88
2021/11/11 17:02:22;;;;;;;36.10;17.52;;;;;;;5.26;100.00;99822.92;4253924;82;28465;-78
2021/11/11 17:08:23;;;;;;;32.35;15.40;;;;;;;4.99;100.00;99823.73;4260810;82;28521;-84
2021/11/11 17:14:27;;;;;;;31.45;16.07;;;;;;;4.77;100.00;99829.84;4246322;82;28500;-86
2021/11/11 17:20:30;;;;;;;40.45;20.50;;;;;;;4.90;100.00;99838.10;4248465;82;28507;-88
2021/11/11 17:27:09;;;;;;;33.02;17.90;;;;;;;4.88;100.00;99841.45;4253943;82;28552;-90
2021/11/11 17:32:50;;;;;;;37.90;19.45;;;;;;;4.88;100.00;99842.78;4218556;83;28508;-84
2021/11/11 17:38:53;;;;;;;38.67;18.75;;;;;;;4.70;100.00;99836.38;4202025;84;28468;-81
2021/11/11 17:44:54;;;;;;;34.58;17.75;;;;;;;4.44;100.00;99841.44;4217035;83;28476;-80
2021/11/11 17:51:00;;;;;;;32.33;16.82;;;;;;;4.41;100.00;99836.47;4222918;83;28525;-76
2021/11/11 17:57:01;;;;;;;36.48;18.42;;;;;;;4.14;100.00;99831.86;4276102;83;28481;-91
2021/11/11 18:03:04;;;;;;;38.67;19.90;;;;;;;4.22;100.00;99827.02;4216693;83;28544;-91
2021/11/11 18:09:14;;;;;;;45.75;21.82;;;;;;;4.33;100.00;99819.51;4215098;83;28521;-87
2021/11/11 18:15:24;;;;;;;44.75;22.05;;;;;;;4.41;100.00;99819.97;4150580;84;28461;-86
2021/11/11 18:21:19;;;;;;;42.00;21.73;;;;;;;4.39;100.00;99825.98;4242894;83;28481;-85
2021/11/11 18:27:24;;;;;;;47.75;22.15;;;;;;;4.45;100.00;99832.45;4229245;83;28489;-89
2021/11/11 18:33:36;;;;;;;50.73;23.83;;;;;;;4.52;100.00;99835.25;4204029;83;28547;-86
2021/11/11 18:39:29;;;;;;;47.30;22.98;;;;;;;4.51;100.00;99834.92;4215599;83;28912;-89
2021/11/11 18:45:34;;;;;;;52.30;24.37;;;;;;;4.64;100.00;99828.58;4223699;83;28650;-86
2021/11/11 18:51:39;;;;;;;61.70;30.57;;;;;;;4.50;100.00;99838.11;4225169;83;28457;-88
2021/11/11 18:57:43;;;;;;;58.58;28.02;;;;;;;4.50;100.00;99823.46;4211767;83;50421;-80
2021/11/11 19:03:46;;;;;;;66.77;32.85;;;;;;;4.46;100.00;99836.28;4244784;83;28880;-81
2021/11/11 19:09:47;;;;;;;62.45;29.48;;;;;;;4.41;100.00;99839.95;4249091;83;28478;-81
2021/11/11 19:15:51;;;;;;;61.95;30.37;;;;;;;4.40;100.00;99824.16;4233809;83;28464;-81
2021/11/11 19:21:55;;;;;;;62.48;32.50;;;;;;;4.32;100.00;99836.97;4225913;83;28501;-79
2021/11/11 19:27:58;;;;;;;72.60;35.50;;;;;;;4.38;100.00;99828.83;4224962;82;28519;-83
2021/11/11 19:47:00;;;;;;;93.82;43.28;;;;;;;4.41;100.00;99840.46;4222690;84;28457;-86
2021/11/11 19:53:08;;;;;;;84.67;40.60;;;;;;;4.35;100.00;99837.98;4222632;83;28511;-87
2021/11/11 19:59:13;;;;;;;83.50;40.00;;;;;;;4.26;100.00;99843.81;4224086;83;28565;-84
2021/11/11 20:11:36;;;;;;;84.32;40.70;;;;;;;4.27;100.00;99851.31;4244675;83;28475;-80
2021/11/11 20:49:18;;;;;;;81.85;39.10;;;;;;;3.75;100.00;99852.88;4224805;83;28549;-80
2021/11/11 20:55:28;;;;;;;90.32;42.75;;;;;;;3.68;100.00;99855.02;4199562;83;28595;-82
2021/11/11 21:01:26;;;;;;;87.05;42.33;;;;;;;3.69;100.00;99849.54;4235161;83;28441;-78
2021/11/11 21:07:35;;;;;;;89.37;41.95;;;;;;;3.61;100.00;99846.38;4221634;83;28504;-83
2021/11/11 21:13:35;;;;;;;77.40;37.42;;;;;;;3.62;100.00;99853.84;4242602;82;28585;-82
2021/11/11 21:19:36;;;;;;;74.15;34.92;;;;;;;3.53;100.00;99861.48;4226269;83;28470;-83
2021/11/11 21:25:37;;;;;;;71.55;36.08;;;;;;;3.59;100.00;99864.34;4220539;81;28545;-78
2021/11/11 21:31:43;;;;;;;79.82;38.05;;;;;;;3.63;100.00;99861.67;4218053;83;28544;-78
2021/11/11 21:43:44;;;;;;;76.67;36.38;;;;;;;3.52;100.00;99857.16;4203480;82;28565;-81
2021/11/11 21:49:47;;;;;;;72.85;34.98;;;;;;;3.44;100.00;99858.84;4232600;83;28559;-83
2021/11/11 21:56:17;;;;;;;69.25;33.28;;;;;;;3.43;100.00;99867.78;4226037;83;28525;-81
2021/11/11 22:02:20;;;;;;;69.32;32.42;;;;;;;3.42;100.00;99872.77;4220603;83;28487;-78
2021/11/11 22:27:04;;;;;;;69.58;34.50;;;;;;;3.34;100.00;99864.80;4230971;83;28539;-79
2021/11/11 22:33:11;;;;;;;66.47;30.27;;;;;;;3.24;100.00;99872.09;4138977;84;28504;-80
2021/11/11 22:39:09;;;;;;;66.07;30.27;;;;;;;3.19;100.00;99869.41;4241113;83;28457;-79
2021/11/11 22:45:12;;;;;;;62.38;29.65;;;;;;;3.16;100.00;99878.20;4225516;83;28552;-81
2021/11/11 22:51:13;;;;;;;57.00;28.50;;;;;;;3.15;100.00;99879.19;4218479;83;28581;-81
2021/11/11 23:04:24;;;;;;;59.13;28.05;;;;;;;3.15;100.00;99871.22;4213560;83;28456;-79
2021/11/11 23:16:08;;;;;;;56.58;27.50;;;;;;;3.03;100.00;99868.05;4234210;82;28457;-78
2021/11/11 23:34:35;;;;;;;54.95;24.60;;;;;;;3.01;100.00;99868.20;4232291;82;28522;-76
2021/11/11 23:40:40;;;;;;;58.65;25.65;;;;;;;3.09;100.00;99862.58;4213154;83;28506;-79
2021/11/11 23:46:41;;;;;;;56.27;26.50;;;;;;;3.05;100.00;99863.40;4220156;83;28481;-80
2021/11/11 23:52:48;;;;;;;56.10;26.10;;;;;;;3.09;100.00;99862.58;4214512;83;28456;-80
